sensor_id;sensor_type;location;lat;lon;timestamp;temperature;humidity
69335;SHT31;56477;52.742;15.242;2022-12-18T00:02:17;-5.70;99.99
69335;SHT31;56477;52.742;15.242;2022-12-18T00:04:43;-5.71;99.99
69335;SHT31;56477;52.742;15.242;2022-12-18T00:07:09;-5.71;99.99
69335;SHT31;56477;52.742;15.242;2022-12-18T00:09:35;-5.70;99.99
69335;SHT31;56477;52.742;15.242;2022-12-18T00:12:01;-5.71;99.99
69335;SHT31;56477;52.742;15.242;2022-12-18T00:14:27;-5.65;99.99
69335;SHT31;56477;52.742;15.242;2022-12-18T00:16:52;-5.68;99.99
69335;SHT31;56477;52.742;15.242;2022-12-18T00:19:18;-5.64;99.99
69335;SHT31;56477;52.742;15.242;2022-12-18T00:21:44;-5.63;99.99
69335;SHT31;56477;52.742;15.242;2022-12-18T00:24:11;-5.58;99.99
69335;SHT31;56477;52.742;15.242;2022-12-18T00:26:38;-5.56;99.99
69335;SHT31;56477;52.742;15.242;2022-12-18T00:29:15;-5.54;99.99
69335;SHT31;56477;52.742;15.242;2022-12-18T00:31:42;-5.54;99.99
69335;SHT31;56477;52.742;15.242;2022-12-18T00:34:12;-5.56;99.99
69335;SHT31;56477;52.742;15.242;2022-12-18T00:36:38;-5.54;99.99
69335;SHT31;56477;52.742;15.242;2022-12-18T00:39:05;-5.50;99.99
69335;SHT31;56477;52.742;15.242;2022-12-18T00:41:31;-5.46;99.99
69335;SHT31;56477;52.742;15.242;2022-12-18T00:44:16;-5.43;99.99
69335;SHT31;56477;52.742;15.242;2022-12-18T00:46:43;-5.40;99.99
69335;SHT31;56477;52.742;15.242;2022-12-18T00:49:10;-5.34;99.99
69335;SHT31;56477;52.742;15.242;2022-12-18T00:51:35;-5.33;99.99
69335;SHT31;56477;52.742;15.242;2022-12-18T00:54:01;-5.33;99.99
69335;SHT31;56477;52.742;15.242;2022-12-18T00:56:27;-5.30;99.99
69335;SHT31;56477;52.742;15.242;2022-12-18T00:58:53;-5.31;99.99
69335;SHT31;56477;52.742;15.242;2022-12-18T01:01:19;-5.30;99.99
69335;SHT31;56477;52.742;15.242;2022-12-18T01:03:45;-5.27;99.99
69335;SHT31;56477;52.742;15.242;2022-12-18T01:06:13;-5.23;99.99
69335;SHT31;56477;52.742;15.242;2022-12-18T01:08:40;-5.24;99.99
69335;SHT31;56477;52.742;15.242;2022-12-18T01:11:11;-5.22;99.99
69335;SHT31;56477;52.742;15.242;2022-12-18T01:13:38;-5.15;99.99
69335;SHT31;56477;52.742;15.242;2022-12-18T01:16:04;-5.16;99.99
69335;SHT31;56477;52.742;15.242;2022-12-18T01:18:31;-5.12;99.99
69335;SHT31;56477;52.742;15.242;2022-12-18T01:20:56;-5.09;99.99
69335;SHT31;56477;52.742;15.242;2022-12-18T01:23:22;-5.09;99.99
69335;SHT31;56477;52.742;15.242;2022-12-18T01:25:48;-5.07;99.99
69335;SHT31;56477;52.742;15.242;2022-12-18T01:28:14;-5.07;99.99
69335;SHT31;56477;52.742;15.242;2022-12-18T01:30:40;-5.00;99.99
69335;SHT31;56477;52.742;15.242;2022-12-18T01:33:06;-5.00;99.99
69335;SHT31;56477;52.742;15.242;2022-12-18T01:35:32;-5.02;99.99
69335;SHT31;56477;52.742;15.242;2022-12-18T01:37:58;-5.03;99.99
69335;SHT31;56477;52.742;15.242;2022-12-18T01:40:23;-5.03;99.99
69335;SHT31;56477;52.742;15.242;2022-12-18T01:42:53;-5.05;99.99
69335;SHT31;56477;52.742;15.242;2022-12-18T01:45:23;-5.02;99.99
69335;SHT31;56477;52.742;15.242;2022-12-18T01:47:59;-4.96;99.99
69335;SHT31;56477;52.742;15.242;2022-12-18T01:50:40;-4.95;99.99
69335;SHT31;56477;52.742;15.242;2022-12-18T01:53:19;-4.93;99.99
69335;SHT31;56477;52.742;15.242;2022-12-18T01:58:12;-4.96;99.99
69335;SHT31;56477;52.742;15.242;2022-12-18T02:00:38;-4.93;99.99
69335;SHT31;56477;52.742;15.242;2022-12-18T02:03:04;-4.88;99.99
69335;SHT31;56477;52.742;15.242;2022-12-18T02:05:43;-4.88;99.99
69335;SHT31;56477;52.742;15.242;2022-12-18T02:08:25;-4.91;99.99
69335;SHT31;56477;52.742;15.242;2022-12-18T02:11:39;-4.89;99.99
69335;SHT31;56477;52.742;15.242;2022-12-18T02:16:44;-4.93;99.99
69335;SHT31;56477;52.742;15.242;2022-12-18T02:19:44;-4.99;99.99
69335;SHT31;56477;52.742;15.242;2022-12-18T02:25:40;-5.02;99.99
69335;SHT31;56477;52.742;15.242;2022-12-18T02:28:13;-5.00;99.99
69335;SHT31;56477;52.742;15.242;2022-12-18T02:30:42;-4.99;99.99
69335;SHT31;56477;52.742;15.242;2022-12-18T02:33:11;-4.98;99.99
69335;SHT31;56477;52.742;15.242;2022-12-18T02:35:38;-4.96;99.99
69335;SHT31;56477;52.742;15.242;2022-12-18T02:38:06;-4.98;99.99
69335;SHT31;56477;52.742;15.242;2022-12-18T02:40:32;-5.00;99.99
69335;SHT31;56477;52.742;15.242;2022-12-18T02:43:09;-5.00;99.99
69335;SHT31;56477;52.742;15.242;2022-12-18T02:45:45;-5.06;99.99
69335;SHT31;56477;52.742;15.242;2022-12-18T02:48:11;-5.07;99.99
69335;SHT31;56477;52.742;15.242;2022-12-18T02:50:55;-5.06;99.99
69335;SHT31;56477;52.742;15.242;2022-12-18T02:56:13;-5.10;99.99
69335;SHT31;56477;52.742;15.242;2022-12-18T02:58:45;-5.13;99.99
69335;SHT31;56477;52.742;15.242;2022-12-18T03:03:46;-5.16;99.99
69335;SHT31;56477;52.742;15.242;2022-12-18T03:06:21;-5.23;99.99
69335;SHT31;56477;52.742;15.242;2022-12-18T03:08:52;-5.24;99.99
69335;SHT31;56477;52.742;15.242;2022-12-18T03:11:20;-5.28;99.99
69335;SHT31;56477;52.742;15.242;2022-12-18T03:14:09;-5.30;99.99
69335;SHT31;56477;52.742;15.242;2022-12-18T03:16:37;-5.33;99.99
69335;SHT31;56477;52.742;15.242;2022-12-18T03:19:15;-5.34;99.99
69335;SHT31;56477;52.742;15.242;2022-12-18T03:21:47;-5.37;99.99
69335;SHT31;56477;52.742;15.242;2022-12-18T03:24:15;-5.44;99.99
69335;SHT31;56477;52.742;15.242;2022-12-18T03:26:45;-5.50;99.99
69335;SHT31;56477;52.742;15.242;2022-12-18T03:29:21;-5.51;99.99
69335;SHT31;56477;52.742;15.242;2022-12-18T03:31:55;-5.56;99.99
69335;SHT31;56477;52.742;15.242;2022-12-18T03:34:29;-5.58;99.99
69335;SHT31;56477;52.742;15.242;2022-12-18T03:36:56;-5.58;99.99
69335;SHT31;56477;52.742;15.242;2022-12-18T03:39:23;-5.56;99.99
69335;SHT31;56477;52.742;15.242;2022-12-18T03:42:07;-5.54;99.99
69335;SHT31;56477;52.742;15.242;2022-12-18T03:47:31;-5.56;99.99
69335;SHT31;56477;52.742;15.242;2022-12-18T03:50:13;-5.54;99.99
69335;SHT31;56477;52.742;15.242;2022-12-18T03:52:54;-5.61;99.99
69335;SHT31;56477;52.742;15.242;2022-12-18T03:55:22;-5.58;99.99
69335;SHT31;56477;52.742;15.242;2022-12-18T03:57:51;-5.63;99.99
69335;SHT31;56477;52.742;15.242;2022-12-18T04:00:18;-5.65;99.99
69335;SHT31;56477;52.742;15.242;2022-12-18T04:02:51;-5.71;99.99
69335;SHT31;56477;52.742;15.242;2022-12-18T04:05:19;-5.73;99.99
69335;SHT31;56477;52.742;15.242;2022-12-18T04:07:47;-5.74;99.99
69335;SHT31;56477;52.742;15.242;2022-12-18T04:10:15;-5.74;99.99
69335;SHT31;56477;52.742;15.242;2022-12-18T04:12:41;-5.71;99.99
69335;SHT31;56477;52.742;15.242;2022-12-18T04:15:08;-5.73;99.99
69335;SHT31;56477;52.742;15.242;2022-12-18T04:17:34;-5.71;99.99
69335;SHT31;56477;52.742;15.242;2022-12-18T04:20:00;-5.74;99.99
69335;SHT31;56477;52.742;15.242;2022-12-18T04:22:26;-5.75;99.99
69335;SHT31;56477;52.742;15.242;2022-12-18T04:24:52;-5.79;99.99
69335;SHT31;56477;52.742;15.242;2022-12-18T04:27:18;-5.78;99.99
69335;SHT31;56477;52.742;15.242;2022-12-18T04:29:44;-5.75;99.99
69335;SHT31;56477;52.742;15.242;2022-12-18T04:32:10;-5.77;99.99
69335;SHT31;56477;52.742;15.242;2022-12-18T04:34:36;-5.78;99.99
69335;SHT31;56477;52.742;15.242;2022-12-18T04:37:02;-5.77;99.99
69335;SHT31;56477;52.742;15.242;2022-12-18T04:39:27;-5.78;99.99
69335;SHT31;56477;52.742;15.242;2022-12-18T04:41:53;-5.74;99.99
69335;SHT31;56477;52.742;15.242;2022-12-18T04:44:19;-5.71;99.99
69335;SHT31;56477;52.742;15.242;2022-12-18T04:46:45;-5.73;99.99
69335;SHT31;56477;52.742;15.242;2022-12-18T04:49:11;-5.74;99.99
69335;SHT31;56477;52.742;15.242;2022-12-18T04:51:37;-5.73;99.99
69335;SHT31;56477;52.742;15.242;2022-12-18T04:54:03;-5.71;99.99
69335;SHT31;56477;52.742;15.242;2022-12-18T04:56:30;-5.67;99.99
69335;SHT31;56477;52.742;15.242;2022-12-18T04:58:56;-5.65;99.99
69335;SHT31;56477;52.742;15.242;2022-12-18T05:01:22;-5.68;99.99
69335;SHT31;56477;52.742;15.242;2022-12-18T05:03:48;-5.65;99.99
69335;SHT31;56477;52.742;15.242;2022-12-18T05:06:14;-5.70;99.99
69335;SHT31;56477;52.742;15.242;2022-12-18T05:08:40;-5.70;99.99
69335;SHT31;56477;52.742;15.242;2022-12-18T05:11:09;-5.67;99.99
69335;SHT31;56477;52.742;15.242;2022-12-18T05:13:36;-5.70;99.99
69335;SHT31;56477;52.742;15.242;2022-12-18T05:16:04;-5.64;99.99
69335;SHT31;56477;52.742;15.242;2022-12-18T05:18:30;-5.70;99.99
69335;SHT31;56477;52.742;15.242;2022-12-18T05:20:57;-5.73;99.99
69335;SHT31;56477;52.742;15.242;2022-12-18T05:23:23;-5.77;99.99
69335;SHT31;56477;52.742;15.242;2022-12-18T05:25:55;-5.79;99.99
69335;SHT31;56477;52.742;15.242;2022-12-18T05:28:21;-5.78;99.99
69335;SHT31;56477;52.742;15.242;2022-12-18T05:30:53;-5.78;99.99
69335;SHT31;56477;52.742;15.242;2022-12-18T05:33:20;-5.78;99.99
69335;SHT31;56477;52.742;15.242;2022-12-18T05:35:54;-5.77;99.99
69335;SHT31;56477;52.742;15.242;2022-12-18T05:38:21;-5.75;99.99
69335;SHT31;56477;52.742;15.242;2022-12-18T05:40:48;-5.73;99.99
69335;SHT31;56477;52.742;15.242;2022-12-18T05:43:14;-5.73;99.99
69335;SHT31;56477;52.742;15.242;2022-12-18T05:45:41;-5.73;99.99
69335;SHT31;56477;52.742;15.242;2022-12-18T05:48:07;-5.73;99.99
69335;SHT31;56477;52.742;15.242;2022-12-18T05:50:37;-5.71;99.99
69335;SHT31;56477;52.742;15.242;2022-12-18T05:53:04;-5.75;99.99
69335;SHT31;56477;52.742;15.242;2022-12-18T05:55:34;-5.78;99.99
69335;SHT31;56477;52.742;15.242;2022-12-18T05:58:01;-5.81;99.99
69335;SHT31;56477;52.742;15.242;2022-12-18T06:00:27;-5.82;99.99
69335;SHT31;56477;52.742;15.242;2022-12-18T06:02:53;-5.82;99.99
69335;SHT31;56477;52.742;15.242;2022-12-18T06:05:19;-5.81;99.99
69335;SHT31;56477;52.742;15.242;2022-12-18T06:07:45;-5.75;99.99
69335;SHT31;56477;52.742;15.242;2022-12-18T06:10:11;-5.73;99.99
69335;SHT31;56477;52.742;15.242;2022-12-18T06:12:37;-5.68;99.99
69335;SHT31;56477;52.742;15.242;2022-12-18T06:15:04;-5.68;99.99
69335;SHT31;56477;52.742;15.242;2022-12-18T06:17:31;-5.71;99.99
69335;SHT31;56477;52.742;15.242;2022-12-18T06:19:57;-5.68;99.99
69335;SHT31;56477;52.742;15.242;2022-12-18T06:22:23;-5.65;99.99
69335;SHT31;56477;52.742;15.242;2022-12-18T06:24:50;-5.64;99.99
69335;SHT31;56477;52.742;15.242;2022-12-18T06:27:16;-5.65;99.99
69335;SHT31;56477;52.742;15.242;2022-12-18T06:29:42;-5.70;99.99
69335;SHT31;56477;52.742;15.242;2022-12-18T06:32:08;-5.70;99.99
69335;SHT31;56477;52.742;15.242;2022-12-18T06:34:37;-5.73;99.99
69335;SHT31;56477;52.742;15.242;2022-12-18T06:37:02;-5.71;99.99
69335;SHT31;56477;52.742;15.242;2022-12-18T06:39:29;-5.73;99.99
69335;SHT31;56477;52.742;15.242;2022-12-18T06:41:55;-5.75;99.99
69335;SHT31;56477;52.742;15.242;2022-12-18T06:44:21;-5.81;99.99
69335;SHT31;56477;52.742;15.242;2022-12-18T06:46:47;-5.79;99.99
69335;SHT31;56477;52.742;15.242;2022-12-18T06:49:13;-5.79;99.99
69335;SHT31;56477;52.742;15.242;2022-12-18T06:51:39;-5.75;99.99
69335;SHT31;56477;52.742;15.242;2022-12-18T06:54:05;-5.75;99.99
69335;SHT31;56477;52.742;15.242;2022-12-18T06:56:30;-5.73;99.99
69335;SHT31;56477;52.742;15.242;2022-12-18T06:58:56;-5.71;99.99
69335;SHT31;56477;52.742;15.242;2022-12-18T07:01:22;-5.74;99.99
69335;SHT31;56477;52.742;15.242;2022-12-18T07:03:56;-5.71;99.99
69335;SHT31;56477;52.742;15.242;2022-12-18T07:06:24;-5.74;99.99
69335;SHT31;56477;52.742;15.242;2022-12-18T07:08:51;-5.73;99.99
69335;SHT31;56477;52.742;15.242;2022-12-18T07:11:18;-5.73;99.99
69335;SHT31;56477;52.742;15.242;2022-12-18T07:13:45;-5.68;99.99
69335;SHT31;56477;52.742;15.242;2022-12-18T07:16:13;-5.65;99.99
69335;SHT31;56477;52.742;15.242;2022-12-18T07:18:39;-5.68;99.99
69335;SHT31;56477;52.742;15.242;2022-12-18T07:21:07;-5.68;99.99
69335;SHT31;56477;52.742;15.242;2022-12-18T07:23:34;-5.71;99.99
69335;SHT31;56477;52.742;15.242;2022-12-18T07:26:05;-5.73;99.99
69335;SHT31;56477;52.742;15.242;2022-12-18T07:28:32;-5.71;99.99
69335;SHT31;56477;52.742;15.242;2022-12-18T07:31:05;-5.70;99.99
69335;SHT31;56477;52.742;15.242;2022-12-18T07:33:32;-5.71;99.99
69335;SHT31;56477;52.742;15.242;2022-12-18T07:35:59;-5.73;99.99
69335;SHT31;56477;52.742;15.242;2022-12-18T07:38:25;-5.67;99.99
69335;SHT31;56477;52.742;15.242;2022-12-18T07:40:51;-5.67;99.99
69335;SHT31;56477;52.742;15.242;2022-12-18T07:43:17;-5.67;99.99
69335;SHT31;56477;52.742;15.242;2022-12-18T07:45:43;-5.71;99.99
69335;SHT31;56477;52.742;15.242;2022-12-18T07:48:09;-5.77;99.99
69335;SHT31;56477;52.742;15.242;2022-12-18T07:50:35;-5.73;99.99
69335;SHT31;56477;52.742;15.242;2022-12-18T07:53:01;-5.75;99.99
69335;SHT31;56477;52.742;15.242;2022-12-18T07:55:30;-5.74;99.99
69335;SHT31;56477;52.742;15.242;2022-12-18T07:57:56;-5.70;99.99
69335;SHT31;56477;52.742;15.242;2022-12-18T08:00:22;-5.67;99.99
69335;SHT31;56477;52.742;15.242;2022-12-18T08:02:48;-5.63;99.99
69335;SHT31;56477;52.742;15.242;2022-12-18T08:05:14;-5.60;99.99
69335;SHT31;56477;52.742;15.242;2022-12-18T08:07:40;-5.57;99.99
69335;SHT31;56477;52.742;15.242;2022-12-18T08:10:06;-5.57;99.99
69335;SHT31;56477;52.742;15.242;2022-12-18T08:12:33;-5.54;99.99
69335;SHT31;56477;52.742;15.242;2022-12-18T08:14:58;-5.56;99.99
69335;SHT31;56477;52.742;15.242;2022-12-18T08:17:24;-5.56;99.99
69335;SHT31;56477;52.742;15.242;2022-12-18T08:19:50;-5.56;99.99
69335;SHT31;56477;52.742;15.242;2022-12-18T08:22:16;-5.57;99.99
69335;SHT31;56477;52.742;15.242;2022-12-18T08:24:42;-5.65;99.99
69335;SHT31;56477;52.742;15.242;2022-12-18T08:27:08;-5.61;99.99
69335;SHT31;56477;52.742;15.242;2022-12-18T08:29:33;-5.60;99.99
69335;SHT31;56477;52.742;15.242;2022-12-18T08:31:59;-5.58;99.99
69335;SHT31;56477;52.742;15.242;2022-12-18T08:34:25;-5.56;99.99
69335;SHT31;56477;52.742;15.242;2022-12-18T08:36:51;-5.53;99.97
69335;SHT31;56477;52.742;15.242;2022-12-18T08:39:17;-5.51;99.99
69335;SHT31;56477;52.742;15.242;2022-12-18T08:41:43;-5.56;99.99
69335;SHT31;56477;52.742;15.242;2022-12-18T08:44:28;-5.53;99.99
69335;SHT31;56477;52.742;15.242;2022-12-18T08:47:05;-5.51;99.99
69335;SHT31;56477;52.742;15.242;2022-12-18T08:49:31;-5.47;99.99
69335;SHT31;56477;52.742;15.242;2022-12-18T08:51:57;-5.47;99.87
69335;SHT31;56477;52.742;15.242;2022-12-18T08:54:23;-5.48;99.83
69335;SHT31;56477;52.742;15.242;2022-12-18T08:56:50;-5.48;99.90
69335;SHT31;56477;52.742;15.242;2022-12-18T08:59:19;-5.47;99.99
69335;SHT31;56477;52.742;15.242;2022-12-18T09:01:46;-5.46;99.99
69335;SHT31;56477;52.742;15.242;2022-12-18T09:04:12;-5.46;99.99
69335;SHT31;56477;52.742;15.242;2022-12-18T09:06:40;-5.44;99.99
69335;SHT31;56477;52.742;15.242;2022-12-18T09:09:06;-5.41;99.99
69335;SHT31;56477;52.742;15.242;2022-12-18T09:11:32;-5.40;99.83
69335;SHT31;56477;52.742;15.242;2022-12-18T09:13:59;-5.41;99.82
69335;SHT31;56477;52.742;15.242;2022-12-18T09:16:27;-5.40;99.94
69335;SHT31;56477;52.742;15.242;2022-12-18T09:18:57;-5.36;99.87
69335;SHT31;56477;52.742;15.242;2022-12-18T09:21:28;-5.33;99.92
69335;SHT31;56477;52.742;15.242;2022-12-18T09:23:55;-5.31;99.90
69335;SHT31;56477;52.742;15.242;2022-12-18T09:26:22;-5.33;99.65
69335;SHT31;56477;52.742;15.242;2022-12-18T09:28:49;-5.37;99.71
69335;SHT31;56477;52.742;15.242;2022-12-18T09:31:16;-5.37;99.81
69335;SHT31;56477;52.742;15.242;2022-12-18T09:33:42;-5.34;99.72
69335;SHT31;56477;52.742;15.242;2022-12-18T09:36:10;-5.31;99.68
69335;SHT31;56477;52.742;15.242;2022-12-18T09:38:37;-5.33;99.62
69335;SHT31;56477;52.742;15.242;2022-12-18T09:41:06;-5.30;99.73
69335;SHT31;56477;52.742;15.242;2022-12-18T09:43:47;-5.27;99.76
69335;SHT31;56477;52.742;15.242;2022-12-18T09:46:21;-5.27;99.77
69335;SHT31;56477;52.742;15.242;2022-12-18T09:48:52;-5.22;99.68
69335;SHT31;56477;52.742;15.242;2022-12-18T09:54:42;-5.20;99.77
69335;SHT31;56477;52.742;15.242;2022-12-18T09:57:13;-5.19;99.76
69335;SHT31;56477;52.742;15.242;2022-12-18T09:59:40;-5.13;99.86
69335;SHT31;56477;52.742;15.242;2022-12-18T10:02:19;-5.12;99.82
69335;SHT31;56477;52.742;15.242;2022-12-18T10:05:10;-5.13;99.67
69335;SHT31;56477;52.742;15.242;2022-12-18T10:08:02;-5.12;99.53
69335;SHT31;56477;52.742;15.242;2022-12-18T10:10:33;-5.10;99.51
69335;SHT31;56477;52.742;15.242;2022-12-18T10:18:50;-5.12;99.66
69335;SHT31;56477;52.742;15.242;2022-12-18T10:21:35;-5.09;99.77
69335;SHT31;56477;52.742;15.242;2022-12-18T10:26:37;-5.07;99.77
69335;SHT31;56477;52.742;15.242;2022-12-18T10:29:10;-5.05;99.85
69335;SHT31;56477;52.742;15.242;2022-12-18T10:31:36;-4.98;99.73
69335;SHT31;56477;52.742;15.242;2022-12-18T10:34:02;-4.95;99.59
69335;SHT31;56477;52.742;15.242;2022-12-18T10:36:28;-4.96;99.50
69335;SHT31;56477;52.742;15.242;2022-12-18T10:39:14;-4.92;99.64
69335;SHT31;56477;52.742;15.242;2022-12-18T10:41:40;-4.91;99.69
69335;SHT31;56477;52.742;15.242;2022-12-18T10:44:27;-4.91;99.79
69335;SHT31;56477;52.742;15.242;2022-12-18T10:47:03;-4.88;99.80
69335;SHT31;56477;52.742;15.242;2022-12-18T10:49:32;-4.84;99.68
69335;SHT31;56477;52.742;15.242;2022-12-18T10:52:10;-4.82;99.68
69335;SHT31;56477;52.742;15.242;2022-12-18T10:54:40;-4.81;99.55
69335;SHT31;56477;52.742;15.242;2022-12-18T10:57:16;-4.82;99.60
69335;SHT31;56477;52.742;15.242;2022-12-18T11:02:47;-4.82;99.58
69335;SHT31;56477;52.742;15.242;2022-12-18T11:05:33;-4.82;99.64
69335;SHT31;56477;52.742;15.242;2022-12-18T11:08:00;-4.86;99.61
69335;SHT31;56477;52.742;15.242;2022-12-18T11:10:36;-4.88;99.57
69335;SHT31;56477;52.742;15.242;2022-12-18T11:13:20;-4.86;99.55
69335;SHT31;56477;52.742;15.242;2022-12-18T11:15:48;-4.85;99.87
69335;SHT31;56477;52.742;15.242;2022-12-18T11:18:33;-4.79;99.79
69335;SHT31;56477;52.742;15.242;2022-12-18T11:21:06;-4.77;99.76
69335;SHT31;56477;52.742;15.242;2022-12-18T11:23:33;-4.75;99.76
69335;SHT31;56477;52.742;15.242;2022-12-18T11:26:04;-4.75;99.71
69335;SHT31;56477;52.742;15.242;2022-12-18T11:28:40;-4.71;99.73
69335;SHT31;56477;52.742;15.242;2022-12-18T11:31:26;-4.68;99.80
69335;SHT31;56477;52.742;15.242;2022-12-18T11:36:22;-4.61;99.72
69335;SHT31;56477;52.742;15.242;2022-12-18T11:38:50;-4.64;99.60
69335;SHT31;56477;52.742;15.242;2022-12-18T11:41:34;-4.67;99.65
69335;SHT31;56477;52.742;15.242;2022-12-18T11:44:26;-4.68;99.69
69335;SHT31;56477;52.742;15.242;2022-12-18T11:47:01;-4.68;99.63
69335;SHT31;56477;52.742;15.242;2022-12-18T11:49:33;-4.72;99.54
69335;SHT31;56477;52.742;15.242;2022-12-18T11:52:15;-4.67;99.38
69335;SHT31;56477;52.742;15.242;2022-12-18T11:54:42;-4.67;99.35
69335;SHT31;56477;52.742;15.242;2022-12-18T11:57:31;-4.69;99.51
69335;SHT31;56477;52.742;15.242;2022-12-18T12:00:16;-4.65;99.50
69335;SHT31;56477;52.742;15.242;2022-12-18T12:08:37;-4.64;99.74
69335;SHT31;56477;52.742;15.242;2022-12-18T12:16:42;-4.64;99.62
69335;SHT31;56477;52.742;15.242;2022-12-18T12:24:27;-4.61;99.38
69335;SHT31;56477;52.742;15.242;2022-12-18T12:29:38;-4.64;99.49
69335;SHT31;56477;52.742;15.242;2022-12-18T12:37:56;-4.67;99.63
69335;SHT31;56477;52.742;15.242;2022-12-18T12:40:27;-4.65;99.72
69335;SHT31;56477;52.742;15.242;2022-12-18T12:43:19;-4.60;99.75
69335;SHT31;56477;52.742;15.242;2022-12-18T12:45:50;-4.62;99.60
69335;SHT31;56477;52.742;15.242;2022-12-18T12:48:26;-4.61;99.73
69335;SHT31;56477;52.742;15.242;2022-12-18T12:50:54;-4.61;99.58
69335;SHT31;56477;52.742;15.242;2022-12-18T12:53:26;-4.71;99.59
69335;SHT31;56477;52.742;15.242;2022-12-18T12:55:53;-4.69;99.39
69335;SHT31;56477;52.742;15.242;2022-12-18T13:01:09;-4.68;99.39
69335;SHT31;56477;52.742;15.242;2022-12-18T13:06:43;-4.72;99.42
69335;SHT31;56477;52.742;15.242;2022-12-18T13:09:11;-4.74;99.33
69335;SHT31;56477;52.742;15.242;2022-12-18T13:11:45;-4.81;99.37
69335;SHT31;56477;52.742;15.242;2022-12-18T13:14:30;-4.84;99.53
69335;SHT31;56477;52.742;15.242;2022-12-18T13:20:02;-4.85;99.69
69335;SHT31;56477;52.742;15.242;2022-12-18T13:22:36;-4.84;99.88
69335;SHT31;56477;52.742;15.242;2022-12-18T13:25:21;-4.77;99.84
69335;SHT31;56477;52.742;15.242;2022-12-18T13:28:09;-4.74;99.60
69335;SHT31;56477;52.742;15.242;2022-12-18T13:35:42;-4.68;99.45
69335;SHT31;56477;52.742;15.242;2022-12-18T13:40:59;-4.74;99.55
69335;SHT31;56477;52.742;15.242;2022-12-18T13:43:33;-4.69;99.76
69335;SHT31;56477;52.742;15.242;2022-12-18T13:48:58;-4.68;99.75
69335;SHT31;56477;52.742;15.242;2022-12-18T13:51:26;-4.61;99.69
69335;SHT31;56477;52.742;15.242;2022-12-18T13:54:00;-4.60;99.70
69335;SHT31;56477;52.742;15.242;2022-12-18T13:56:31;-4.60;99.75
69335;SHT31;56477;52.742;15.242;2022-12-18T14:06:49;-4.68;99.64
69335;SHT31;56477;52.742;15.242;2022-12-18T14:09:21;-4.72;99.52
69335;SHT31;56477;52.742;15.242;2022-12-18T14:11:49;-4.72;99.52
69335;SHT31;56477;52.742;15.242;2022-12-18T14:14:17;-4.68;99.63
69335;SHT31;56477;52.742;15.242;2022-12-18T14:16:44;-4.78;99.59
69335;SHT31;56477;52.742;15.242;2022-12-18T14:19:14;-4.74;99.58
69335;SHT31;56477;52.742;15.242;2022-12-18T14:21:48;-4.77;99.50
69335;SHT31;56477;52.742;15.242;2022-12-18T14:24:20;-4.75;99.59
69335;SHT31;56477;52.742;15.242;2022-12-18T14:26:48;-4.75;99.67
69335;SHT31;56477;52.742;15.242;2022-12-18T14:29:28;-4.75;99.60
69335;SHT31;56477;52.742;15.242;2022-12-18T14:32:14;-4.84;99.42
69335;SHT31;56477;52.742;15.242;2022-12-18T14:34:53;-4.89;99.44
69335;SHT31;56477;52.742;15.242;2022-12-18T14:37:24;-4.98;99.29
69335;SHT31;56477;52.742;15.242;2022-12-18T14:39:59;-4.99;99.41
69335;SHT31;56477;52.742;15.242;2022-12-18T14:42:27;-5.06;99.44
69335;SHT31;56477;52.742;15.242;2022-12-18T14:47:57;-5.03;99.55
69335;SHT31;56477;52.742;15.242;2022-12-18T14:50:23;-5.06;99.41
69335;SHT31;56477;52.742;15.242;2022-12-18T14:52:50;-5.07;99.46
69335;SHT31;56477;52.742;15.242;2022-12-18T14:55:17;-5.09;99.66
69335;SHT31;56477;52.742;15.242;2022-12-18T14:57:44;-5.05;99.65
69335;SHT31;56477;52.742;15.242;2022-12-18T15:00:22;-5.02;99.55
69335;SHT31;56477;52.742;15.242;2022-12-18T15:02:52;-5.03;99.68
69335;SHT31;56477;52.742;15.242;2022-12-18T15:05:24;-5.00;99.57
69335;SHT31;56477;52.742;15.242;2022-12-18T15:07:52;-4.93;99.49
69335;SHT31;56477;52.742;15.242;2022-12-18T15:10:22;-4.98;99.50
69335;SHT31;56477;52.742;15.242;2022-12-18T15:13:05;-4.99;99.77
69335;SHT31;56477;52.742;15.242;2022-12-18T15:23:23;-4.93;99.70
69335;SHT31;56477;52.742;15.242;2022-12-18T15:26:02;-4.95;99.42
69335;SHT31;56477;52.742;15.242;2022-12-18T15:28:35;-4.99;99.49
69335;SHT31;56477;52.742;15.242;2022-12-18T15:31:06;-5.05;99.59
69335;SHT31;56477;52.742;15.242;2022-12-18T15:36:21;-5.05;99.53
69335;SHT31;56477;52.742;15.242;2022-12-18T15:38:49;-5.07;99.49
69335;SHT31;56477;52.742;15.242;2022-12-18T15:41:17;-5.07;99.48
69335;SHT31;56477;52.742;15.242;2022-12-18T15:43:43;-5.09;99.39
69335;SHT31;56477;52.742;15.242;2022-12-18T15:46:18;-5.07;99.49
69335;SHT31;56477;52.742;15.242;2022-12-18T15:48:55;-5.05;99.57
69335;SHT31;56477;52.742;15.242;2022-12-18T15:51:28;-5.00;99.58
69335;SHT31;56477;52.742;15.242;2022-12-18T15:53:56;-5.02;99.43
69335;SHT31;56477;52.742;15.242;2022-12-18T15:56:24;-4.99;99.41
69335;SHT31;56477;52.742;15.242;2022-12-18T15:59:15;-4.95;99.21
69335;SHT31;56477;52.742;15.242;2022-12-18T16:01:43;-4.93;99.21
69335;SHT31;56477;52.742;15.242;2022-12-18T16:04:12;-4.92;99.18
69335;SHT31;56477;52.742;15.242;2022-12-18T16:06:39;-4.95;99.30
69335;SHT31;56477;52.742;15.242;2022-12-18T16:09:04;-4.93;99.46
69335;SHT31;56477;52.742;15.242;2022-12-18T16:11:32;-4.95;99.55
69335;SHT31;56477;52.742;15.242;2022-12-18T16:14:23;-4.95;99.60
69335;SHT31;56477;52.742;15.242;2022-12-18T16:16:55;-4.95;99.71
69335;SHT31;56477;52.742;15.242;2022-12-18T16:19:21;-4.91;99.67
69335;SHT31;56477;52.742;15.242;2022-12-18T16:21:49;-4.89;99.71
69335;SHT31;56477;52.742;15.242;2022-12-18T16:24:23;-4.86;99.72
69335;SHT31;56477;52.742;15.242;2022-12-18T16:26:51;-4.89;99.60
69335;SHT31;56477;52.742;15.242;2022-12-18T16:29:17;-4.86;99.71
69335;SHT31;56477;52.742;15.242;2022-12-18T16:31:44;-4.84;99.73
69335;SHT31;56477;52.742;15.242;2022-12-18T16:34:33;-4.82;99.69
69335;SHT31;56477;52.742;15.242;2022-12-18T16:37:02;-4.81;99.71
69335;SHT31;56477;52.742;15.242;2022-12-18T16:39:28;-4.79;99.36
69335;SHT31;56477;52.742;15.242;2022-12-18T16:41:56;-4.79;99.46
69335;SHT31;56477;52.742;15.242;2022-12-18T16:44:22;-4.81;99.37
69335;SHT31;56477;52.742;15.242;2022-12-18T16:46:48;-4.84;99.28
69335;SHT31;56477;52.742;15.242;2022-12-18T16:49:15;-4.79;99.07
69335;SHT31;56477;52.742;15.242;2022-12-18T16:51:41;-4.79;98.98
69335;SHT31;56477;52.742;15.242;2022-12-18T16:54:07;-4.84;98.90
69335;SHT31;56477;52.742;15.242;2022-12-18T16:56:33;-4.86;99.01
69335;SHT31;56477;52.742;15.242;2022-12-18T16:59:01;-4.79;98.80
69335;SHT31;56477;52.742;15.242;2022-12-18T17:01:29;-4.85;98.90
69335;SHT31;56477;52.742;15.242;2022-12-18T17:04:00;-4.89;98.97
69335;SHT31;56477;52.742;15.242;2022-12-18T17:06:28;-4.88;98.72
69335;SHT31;56477;52.742;15.242;2022-12-18T17:08:56;-4.86;98.72
69335;SHT31;56477;52.742;15.242;2022-12-18T17:11:23;-4.89;98.84
69335;SHT31;56477;52.742;15.242;2022-12-18T17:13:49;-4.93;98.54